createdAt,value
2022-11-24T00:01:12.564Z,1.10
2022-11-24T00:03:39.308Z,0.98
2022-11-24T00:06:10.976Z,1.73
2022-11-24T00:08:39.875Z,1.17
2022-11-24T00:11:10.860Z,1.38
2022-11-24T00:13:40.818Z,1.45
2022-11-24T00:16:11.927Z,1.17
2022-11-24T00:18:40.957Z,1.17
2022-11-24T00:21:08.262Z,0.98
2022-11-24T00:23:35.564Z,1.45
2022-11-24T00:26:22.430Z,1.20
2022-11-24T00:28:55.551Z,0.95
2022-11-24T00:31:25.073Z,1.58
2022-11-24T00:33:54.079Z,0.90
2022-11-24T00:36:23.083Z,1.08
2022-11-24T00:39:01.428Z,1.38
2022-11-24T00:41:29.204Z,1.23
2022-11-24T00:43:56.272Z,1.02
2022-11-24T00:46:24.173Z,1.17
2022-11-24T00:48:51.438Z,2.03
2022-11-24T00:51:19.526Z,1.00
2022-11-24T00:53:46.188Z,1.40
2022-11-24T00:56:13.384Z,1.33
2022-11-24T00:58:40.507Z,1.13
2022-11-24T01:01:11.376Z,1.10
2022-11-24T01:03:38.458Z,1.02
2022-11-24T01:06:14.096Z,1.08
2022-11-24T01:08:41.953Z,1.90
2022-11-24T01:11:11.048Z,1.42
2022-11-24T01:13:38.769Z,1.30
2022-11-24T01:16:05.786Z,1.08
2022-11-24T01:18:32.655Z,1.48
2022-11-24T01:21:08.621Z,1.17
2022-11-24T01:23:36.914Z,1.25
2022-11-24T01:26:08.429Z,1.02
2022-11-24T01:28:35.402Z,1.50
2022-11-24T01:31:04.637Z,1.77
2022-11-24T01:33:31.646Z,1.20
2022-11-24T01:35:59.335Z,1.20
2022-11-24T01:38:26.856Z,1.27
2022-11-24T01:41:07.209Z,1.08
2022-11-24T01:43:33.981Z,1.23
2022-11-24T01:46:27.900Z,1.23
2022-11-24T01:49:14.718Z,1.60
2022-11-24T01:51:51.925Z,1.50
2022-11-24T01:54:36.490Z,2.55
2022-11-24T01:57:14.220Z,1.67
2022-11-24T01:59:41.354Z,1.65
2022-11-24T02:02:09.011Z,1.15
2022-11-24T02:04:37.144Z,1.40
2022-11-24T02:07:06.971Z,1.63
2022-11-24T02:09:37.751Z,1.75
2022-11-24T02:12:06.210Z,1.30
2022-11-24T02:14:35.649Z,1.30
2022-11-24T02:17:02.520Z,1.38
2022-11-24T02:20:07.429Z,1.13
2022-11-24T02:22:59.567Z,1.58
2022-11-24T02:25:34.957Z,1.42
2022-11-24T02:28:05.410Z,1.55
2022-11-24T02:30:32.306Z,1.52
2022-11-24T02:32:59.241Z,1.42
2022-11-24T02:35:27.742Z,1.27
2022-11-24T02:37:54.715Z,1.30
2022-11-24T02:40:25.469Z,2.30
2022-11-24T02:42:56.637Z,2.00
2022-11-24T02:45:24.366Z,1.27
2022-11-24T02:47:51.018Z,1.48
2022-11-24T02:50:17.679Z,1.52
2022-11-24T02:52:44.349Z,1.83
2022-11-24T02:55:11.115Z,1.30
2022-11-24T02:57:37.792Z,2.03
2022-11-24T03:00:05.061Z,1.35
2022-11-24T03:02:31.844Z,1.70
2022-11-24T03:04:58.681Z,1.60
2022-11-24T03:07:25.423Z,2.35
2022-11-24T03:09:52.049Z,2.33
2022-11-24T03:12:18.843Z,2.00
2022-11-24T03:14:45.455Z,1.50
2022-11-24T03:17:12.843Z,2.33
2022-11-24T03:19:39.494Z,2.22
2022-11-24T03:22:06.247Z,2.03
2022-11-24T03:24:33.239Z,2.03
2022-11-24T03:27:00.217Z,1.52
2022-11-24T03:29:26.913Z,2.50
2022-11-24T03:31:53.599Z,2.67
2022-11-24T03:34:20.290Z,1.83
2022-11-24T03:36:47.082Z,1.73
2022-11-24T03:39:14.023Z,2.08
2022-11-24T03:41:40.662Z,2.17
2022-11-24T03:44:07.298Z,1.75
2022-11-24T03:46:33.968Z,3.10
2022-11-24T03:49:00.708Z,2.30
2022-11-24T03:51:27.352Z,2.67
2022-11-24T03:53:53.972Z,2.05
2022-11-24T03:56:20.721Z,2.75
2022-11-24T03:58:47.362Z,2.10
2022-11-24T04:01:14.122Z,1.98
2022-11-24T04:03:40.905Z,2.17
2022-11-24T04:06:07.523Z,2.13
2022-11-24T04:08:34.186Z,2.60
2022-11-24T04:11:00.983Z,2.47
2022-11-24T04:13:28.733Z,1.77
2022-11-24T04:15:55.440Z,2.60
2022-11-24T04:18:23.035Z,2.20
2022-11-24T04:20:51.091Z,2.42
2022-11-24T04:23:18.558Z,2.13
2022-11-24T04:25:47.578Z,2.20
2022-11-24T04:28:14.231Z,2.50
2022-11-24T04:30:44.849Z,1.80
2022-11-24T04:33:12.378Z,2.65
2022-11-24T04:35:38.979Z,3.00
2022-11-24T04:38:05.661Z,2.45
2022-11-24T04:40:32.348Z,2.15
2022-11-24T04:42:59.047Z,2.75
2022-11-24T04:45:25.806Z,1.70
2022-11-24T04:47:52.435Z,2.65
2022-11-24T04:50:19.080Z,2.67
2022-11-24T04:52:46.019Z,2.75
2022-11-24T04:55:12.659Z,1.90
2022-11-24T04:57:39.574Z,2.30
2022-11-24T05:00:07.541Z,2.28
2022-11-24T05:02:34.194Z,1.98
2022-11-24T05:05:00.913Z,3.03
2022-11-24T05:07:27.639Z,4.43
2022-11-24T05:10:12.636Z,1.55
2022-11-24T05:12:39.589Z,1.90
2022-11-24T05:15:06.943Z,2.70
2022-11-24T05:17:35.937Z,1.70
2022-11-24T05:20:03.687Z,1.85
2022-11-24T05:22:30.416Z,2.10
2022-11-24T05:24:57.316Z,1.85
2022-11-24T05:27:24.208Z,2.63
2022-11-24T05:29:50.827Z,1.90
2022-11-24T05:32:17.480Z,2.22
2022-11-24T05:34:44.075Z,3.70
2022-11-24T05:37:10.670Z,2.90
2022-11-24T05:39:37.466Z,2.35
2022-11-24T05:42:25.393Z,2.00
2022-11-24T05:44:52.857Z,3.05
2022-11-24T05:47:20.430Z,2.47
2022-11-24T05:49:47.498Z,2.47
2022-11-24T05:52:14.422Z,2.03
2022-11-24T05:54:41.090Z,2.25
2022-11-24T05:57:07.730Z,3.00
2022-11-24T05:59:34.362Z,2.30
2022-11-24T06:02:01.157Z,2.20
2022-11-24T06:04:27.911Z,2.30
2022-11-24T06:06:54.595Z,2.83
2022-11-24T06:09:21.318Z,2.83
2022-11-24T06:11:48.613Z,2.60
2022-11-24T06:14:15.373Z,3.13
2022-11-24T06:16:42.147Z,2.70
2022-11-24T06:19:10.701Z,3.75
2022-11-24T06:21:37.636Z,3.85
2022-11-24T06:24:05.540Z,2.88
2022-11-24T06:26:33.283Z,3.13
2022-11-24T06:28:59.937Z,2.90
2022-11-24T06:31:26.800Z,3.80
2022-11-24T06:33:53.714Z,3.08
2022-11-24T06:36:20.512Z,3.05
2022-11-24T06:38:47.172Z,2.92
2022-11-24T06:41:16.000Z,2.45
2022-11-24T06:43:43.077Z,2.53
2022-11-24T06:46:09.847Z,3.83
2022-11-24T06:48:36.742Z,2.38
2022-11-24T06:51:08.684Z,3.33
2022-11-24T06:53:38.358Z,3.78
2022-11-24T06:56:15.833Z,3.38
2022-11-24T06:58:48.181Z,4.90
2022-11-24T07:01:25.972Z,2.63
2022-11-24T07:03:54.007Z,3.10
2022-11-24T07:06:21.805Z,4.97
2022-11-24T07:08:49.490Z,1.90
2022-11-24T07:11:19.035Z,3.75
2022-11-24T07:13:46.586Z,2.60
2022-11-24T07:16:19.288Z,2.50
2022-11-24T07:18:47.547Z,2.60
2022-11-24T07:21:14.733Z,2.75
2022-11-24T07:23:41.776Z,3.15
2022-11-24T07:26:09.855Z,2.80
2022-11-24T07:28:37.606Z,2.83
2022-11-24T07:31:08.833Z,2.33
2022-11-24T07:33:36.015Z,2.88
2022-11-24T07:36:03.972Z,4.05
2022-11-24T07:38:31.767Z,2.63
2022-11-24T07:41:03.652Z,2.22
2022-11-24T07:43:35.530Z,2.78
2022-11-24T07:46:02.913Z,3.33
2022-11-24T07:48:30.180Z,3.03
2022-11-24T07:51:01.002Z,2.72
2022-11-24T07:53:28.697Z,3.45
2022-11-24T07:56:00.517Z,2.60
2022-11-24T07:58:33.246Z,3.03
2022-11-24T08:01:00.911Z,2.65
2022-11-24T08:03:27.795Z,2.38
2022-11-24T08:08:47.898Z,3.15
2022-11-24T08:11:16.868Z,2.53
2022-11-24T08:13:44.120Z,3.65
2022-11-24T08:16:13.613Z,3.58
2022-11-24T08:18:40.938Z,2.72
2022-11-24T08:21:11.832Z,2.28
2022-11-24T08:23:42.202Z,3.15
2022-11-24T08:26:13.783Z,3.50
2022-11-24T08:28:41.033Z,2.83
2022-11-24T08:31:10.594Z,3.13
2022-11-24T08:33:37.927Z,2.65
2022-11-24T08:36:10.296Z,3.10
2022-11-24T08:38:37.362Z,3.67
2022-11-24T08:41:08.434Z,3.03
2022-11-24T08:43:35.376Z,4.00
2022-11-24T08:46:04.913Z,2.67
2022-11-24T08:48:32.206Z,3.28
2022-11-24T08:50:59.799Z,2.58
2022-11-24T08:53:26.476Z,2.97
2022-11-24T08:55:53.229Z,3.25
2022-11-24T08:58:19.922Z,2.75
2022-11-24T09:00:55.198Z,2.72
2022-11-24T09:03:22.174Z,2.97
2022-11-24T09:05:52.929Z,2.80
2022-11-24T09:08:20.726Z,2.15
2022-11-24T09:10:47.446Z,2.78
2022-11-24T09:13:14.141Z,3.10
2022-11-24T09:15:40.770Z,3.40
2022-11-24T09:18:07.413Z,2.85
2022-11-24T09:20:35.008Z,2.63
2022-11-24T09:23:02.912Z,2.75
2022-11-24T09:25:29.559Z,2.33
2022-11-24T09:27:57.203Z,3.03
2022-11-24T09:30:24.002Z,4.97
2022-11-24T09:32:50.663Z,2.85
2022-11-24T09:35:18.080Z,3.47
2022-11-24T09:37:45.783Z,4.38
2022-11-24T09:40:14.773Z,2.65
2022-11-24T09:42:50.664Z,3.53
2022-11-24T09:46:04.371Z,3.38
2022-11-24T09:48:57.043Z,2.75
2022-11-24T09:51:28.846Z,3.42
2022-11-24T09:54:35.876Z,3.60
2022-11-24T09:57:06.370Z,3.20
2022-11-24T09:59:33.343Z,4.18
2022-11-24T10:02:00.344Z,4.03
2022-11-24T10:04:40.112Z,3.15
2022-11-24T10:07:22.771Z,2.67
2022-11-24T10:10:07.582Z,3.33
2022-11-24T10:12:43.541Z,3.13
2022-11-24T10:15:37.397Z,5.33
2022-11-24T10:18:22.312Z,3.85
2022-11-24T10:21:05.622Z,4.05
2022-11-24T10:23:47.411Z,3.85
2022-11-24T10:26:35.821Z,3.15
2022-11-24T10:29:15.173Z,3.88
2022-11-24T10:31:43.719Z,3.08
2022-11-24T10:34:45.562Z,3.13
2022-11-24T10:37:36.241Z,3.53
2022-11-24T10:40:56.425Z,6.93
2022-11-24T10:43:13.053Z,4.10
2022-11-24T10:45:42.305Z,2.72
2022-11-24T10:48:22.226Z,3.38
2022-11-24T10:50:49.113Z,3.95
2022-11-24T10:53:28.229Z,2.78
2022-11-24T10:56:16.450Z,4.03
2022-11-24T10:58:43.116Z,2.90
2022-11-24T11:01:12.869Z,4.53
2022-11-24T11:03:57.637Z,2.65
2022-11-24T11:06:28.870Z,4.93
2022-11-24T11:09:08.573Z,4.25
2022-11-24T11:11:37.025Z,3.60
2022-11-24T11:14:10.622Z,4.03
2022-11-24T11:16:46.556Z,3.70
2022-11-24T11:19:58.551Z,3.60
2022-11-24T11:22:23.895Z,4.10
2022-11-24T11:25:04.470Z,4.15
2022-11-24T11:27:32.202Z,3.55
2022-11-24T11:36:11.294Z,2.55
2022-11-24T11:38:41.031Z,3.35
2022-11-24T11:41:19.328Z,5.07
2022-11-24T11:43:50.601Z,4.25
2022-11-24T11:46:17.537Z,3.35
2022-11-24T11:48:48.165Z,2.83
2022-11-24T11:51:34.256Z,4.40
2022-11-24T11:54:17.247Z,3.60
2022-11-24T11:56:45.891Z,4.03
2022-11-24T11:59:42.971Z,3.80
2022-11-24T12:02:18.986Z,3.90
2022-11-24T12:04:48.679Z,4.78
2022-11-24T12:07:36.803Z,2.65
2022-11-24T12:10:36.815Z,2.72
2022-11-24T12:13:28.751Z,3.25
2022-11-24T12:15:59.319Z,2.97
2022-11-24T12:18:56.641Z,2.33
2022-11-24T12:21:32.020Z,3.58
2022-11-24T12:24:35.932Z,3.10
2022-11-24T12:27:46.523Z,2.97
2022-11-24T12:30:18.470Z,3.75
2022-11-24T12:32:51.221Z,3.15
2022-11-24T12:35:29.886Z,3.28
2022-11-24T12:38:14.035Z,2.95
2022-11-24T12:44:41.304Z,1.98
2022-11-24T12:47:16.927Z,3.38
2022-11-24T12:50:01.987Z,2.20
2022-11-24T12:52:35.124Z,3.15
2022-11-24T12:55:04.748Z,2.22
2022-11-24T12:57:41.280Z,2.08
2022-11-24T13:00:16.101Z,2.58
2022-11-24T13:02:54.201Z,3.38
2022-11-24T13:05:35.750Z,2.88
2022-11-24T13:08:04.423Z,2.20
2022-11-24T13:10:55.224Z,2.63
2022-11-24T13:13:27.484Z,2.28
2022-11-24T13:18:49.504Z,2.03
2022-11-24T13:21:31.052Z,2.20
2022-11-24T13:23:59.923Z,2.50
2022-11-24T13:26:43.789Z,2.38
2022-11-24T13:29:28.838Z,2.75
2022-11-24T13:32:17.760Z,2.75
2022-11-24T13:34:45.702Z,2.60
2022-11-24T13:37:34.602Z,1.88
2022-11-24T13:40:31.738Z,3.13
2022-11-24T13:43:01.206Z,2.53
2022-11-24T13:45:40.678Z,2.78
2022-11-24T13:48:21.370Z,2.42
2022-11-24T13:50:51.575Z,2.88
2022-11-24T13:53:45.775Z,2.95
2022-11-24T13:56:12.406Z,3.08
2022-11-24T13:58:52.376Z,2.88
2022-11-24T14:01:20.360Z,3.00
2022-11-24T14:04:33.076Z,2.30
2022-11-24T14:07:09.221Z,3.95
2022-11-24T14:09:50.170Z,2.63
2022-11-24T14:12:23.893Z,3.00
2022-11-24T14:14:52.963Z,2.17
2022-11-24T14:17:28.500Z,1.73
2022-11-24T14:19:57.197Z,2.87
2022-11-24T14:22:36.637Z,2.97
2022-11-24T14:25:04.160Z,0.73
2022-11-24T14:27:34.952Z,0.68
2022-11-24T14:30:32.097Z,3.42
2022-11-24T14:33:01.598Z,0.70
2022-11-24T14:35:42.593Z,0.98
2022-11-24T14:38:12.588Z,0.75
2022-11-24T14:40:51.865Z,1.17
2022-11-24T14:43:24.547Z,0.68
2022-11-24T14:45:58.237Z,0.80
2022-11-24T14:48:36.161Z,0.77
2022-11-24T14:51:31.426Z,0.60
2022-11-24T14:54:01.363Z,0.93
2022-11-24T14:56:57.276Z,0.75
2022-11-24T14:59:27.170Z,0.60
2022-11-24T15:01:54.445Z,1.23
2022-11-24T15:04:54.824Z,0.88
2022-11-24T15:07:31.881Z,1.70
2022-11-24T15:10:00.802Z,1.17
2022-11-24T15:12:31.518Z,0.75
2022-11-24T15:15:02.651Z,1.38
2022-11-24T15:17:30.414Z,1.00
2022-11-24T15:20:20.621Z,1.40
2022-11-24T15:22:47.218Z,1.50
2022-11-24T15:25:32.773Z,1.30
2022-11-24T15:28:00.704Z,1.00
2022-11-24T15:30:28.592Z,1.23
2022-11-24T15:32:58.044Z,1.15
2022-11-24T15:35:26.917Z,0.90
2022-11-24T15:37:53.676Z,1.05
2022-11-24T15:40:20.686Z,1.00
2022-11-24T15:42:52.395Z,0.70
2022-11-24T15:45:20.559Z,1.00
2022-11-24T15:47:47.735Z,1.27
2022-11-24T15:50:15.021Z,0.85
2022-11-24T15:52:44.193Z,1.40
2022-11-24T15:55:20.991Z,1.30
2022-11-24T15:57:48.934Z,1.30
2022-11-24T16:00:18.352Z,1.70
2022-11-24T16:02:45.318Z,1.35
2022-11-24T16:05:14.563Z,2.05
2022-11-24T16:07:42.205Z,2.10
2022-11-24T16:10:22.048Z,1.75
2022-11-24T16:12:48.895Z,2.00
2022-11-24T16:15:15.700Z,1.65
2022-11-24T16:17:42.303Z,1.05
2022-11-24T16:20:09.380Z,2.30
2022-11-24T16:22:36.041Z,1.88
2022-11-24T16:25:04.210Z,2.55
2022-11-24T16:27:31.639Z,2.08
2022-11-24T16:29:58.375Z,2.03
2022-11-24T16:32:25.604Z,2.15
2022-11-24T16:34:52.867Z,3.42
2022-11-24T16:37:22.489Z,2.42
2022-11-24T16:39:50.350Z,2.63
2022-11-24T16:42:17.550Z,3.70
2022-11-24T16:44:44.234Z,2.40
2022-11-24T16:47:12.924Z,2.50
2022-11-24T16:49:39.817Z,3.05
2022-11-24T16:52:08.581Z,2.47
2022-11-24T16:54:35.319Z,3.42
2022-11-24T16:57:02.342Z,2.50
2022-11-24T16:59:28.977Z,1.83
2022-11-24T17:01:55.788Z,2.10
2022-11-24T17:04:22.530Z,1.92
2022-11-24T17:06:49.164Z,2.10
2022-11-24T17:09:18.977Z,2.10
2022-11-24T17:11:45.721Z,2.45
2022-11-24T17:14:12.749Z,1.77
2022-11-24T17:16:39.660Z,2.30
2022-11-24T17:19:06.325Z,2.95
2022-11-24T17:21:33.227Z,2.40
2022-11-24T17:24:02.976Z,2.70
2022-11-24T17:26:29.695Z,2.90
2022-11-24T17:28:56.970Z,2.58
2022-11-24T17:31:26.293Z,1.92
2022-11-24T17:33:55.399Z,2.25
2022-11-24T17:36:22.860Z,1.88
2022-11-24T17:38:49.652Z,1.92
2022-11-24T17:41:21.352Z,2.55
2022-11-24T17:43:53.243Z,2.25
2022-11-24T17:46:20.207Z,1.45
2022-11-24T17:48:47.163Z,2.17
2022-11-24T17:51:19.264Z,1.55
2022-11-24T17:53:49.307Z,2.00
2022-11-24T17:56:18.592Z,1.50
2022-11-24T17:58:45.326Z,2.08
2022-11-24T18:01:14.817Z,2.13
2022-11-24T18:03:42.316Z,1.90
2022-11-24T18:06:13.096Z,4.75
2022-11-24T18:08:42.595Z,4.07
2022-11-24T18:11:12.934Z,7.80
2022-11-24T18:13:56.657Z,4.07
2022-11-24T18:16:30.001Z,1.88
2022-11-24T18:19:14.599Z,2.00
2022-11-24T18:21:43.790Z,1.35
2022-11-24T18:24:11.811Z,2.30
2022-11-24T18:26:40.010Z,1.88
2022-11-24T18:29:06.680Z,1.50
2022-11-24T18:31:35.497Z,2.80
2022-11-24T18:34:03.508Z,2.80
2022-11-24T18:36:30.896Z,2.03
2022-11-24T18:39:04.875Z,2.08
2022-11-24T18:41:31.951Z,1.85
2022-11-24T18:44:02.289Z,2.90
2022-11-24T18:46:29.187Z,2.42
2022-11-24T18:48:55.804Z,2.10
2022-11-24T18:51:23.580Z,3.15
2022-11-24T18:53:58.077Z,3.13
2022-11-24T18:56:25.470Z,2.33
2022-11-24T18:58:54.120Z,3.25
2022-11-24T19:01:23.849Z,2.90
2022-11-24T19:03:53.450Z,2.30
2022-11-24T19:06:23.068Z,2.28
2022-11-24T19:08:53.420Z,2.17
2022-11-24T19:11:23.089Z,1.95
2022-11-24T19:13:50.237Z,2.53
2022-11-24T19:16:18.288Z,2.55
2022-11-24T19:18:50.259Z,2.88
2022-11-24T19:21:20.248Z,2.05
2022-11-24T19:23:46.860Z,1.90
2022-11-24T19:26:13.574Z,1.67
2022-11-24T19:28:40.237Z,1.58
2022-11-24T19:31:10.200Z,2.13
2022-11-24T19:33:36.833Z,1.67
2022-11-24T19:36:09.118Z,2.22
2022-11-24T19:38:39.187Z,1.60
2022-11-24T19:41:11.557Z,1.42
2022-11-24T19:43:39.068Z,1.70
2022-11-24T19:46:08.600Z,2.17
2022-11-24T19:48:38.518Z,2.38
2022-11-24T19:51:10.084Z,2.55
2022-11-24T19:53:36.759Z,1.90
2022-11-24T19:56:08.882Z,2.50
2022-11-24T19:58:36.582Z,2.33
2022-11-24T20:01:09.633Z,2.28
2022-11-24T20:03:38.253Z,2.20
2022-11-24T20:06:09.448Z,2.35
2022-11-24T20:08:37.765Z,2.70
2022-11-24T20:11:07.497Z,2.47
2022-11-24T20:13:35.702Z,3.03
2022-11-24T20:16:11.190Z,2.53
2022-11-24T20:18:42.159Z,3.10
2022-11-24T20:21:11.842Z,2.35
2022-11-24T20:23:39.613Z,2.50
2022-11-24T20:26:09.894Z,2.67
2022-11-24T20:28:39.686Z,2.58
2022-11-24T20:31:12.428Z,2.97
2022-11-24T20:33:40.890Z,2.05
2022-11-24T20:36:16.777Z,2.63
2022-11-24T20:38:44.373Z,2.47
2022-11-24T20:41:16.200Z,2.42
2022-11-24T20:43:44.095Z,3.10
2022-11-24T20:46:12.313Z,2.05
2022-11-24T20:48:39.372Z,2.30
2022-11-24T20:51:14.119Z,2.78
2022-11-24T20:53:41.206Z,2.92
2022-11-24T20:56:10.995Z,2.53
2022-11-24T20:58:38.475Z,2.42
2022-11-24T21:01:08.139Z,2.35
2022-11-24T21:03:41.219Z,2.35
2022-11-24T21:06:09.666Z,2.40
2022-11-24T21:08:38.343Z,3.05
2022-11-24T21:11:06.804Z,1.92
2022-11-24T21:13:35.258Z,2.33
2022-11-24T21:16:17.996Z,2.15
2022-11-24T21:18:47.039Z,2.95
2022-11-24T21:21:14.662Z,2.05
2022-11-24T21:23:41.328Z,2.38
2022-11-24T21:26:14.821Z,2.38
2022-11-24T21:28:43.936Z,2.53
2022-11-24T21:31:14.426Z,2.10
2022-11-24T21:33:43.163Z,2.22
2022-11-24T21:36:09.897Z,2.00
2022-11-24T21:38:36.899Z,2.85
2022-11-24T21:41:06.462Z,3.75
2022-11-24T21:43:34.025Z,2.70
2022-11-24T21:46:02.775Z,2.85
2022-11-24T21:48:30.212Z,2.20
2022-11-24T21:51:01.641Z,1.88
2022-11-24T21:53:34.999Z,1.63
2022-11-24T21:56:05.701Z,2.00
2022-11-24T21:58:33.450Z,2.40
2022-11-24T22:01:05.649Z,1.90
2022-11-24T22:03:32.712Z,1.60
2022-11-24T22:06:00.735Z,4.10
2022-11-24T22:08:29.762Z,2.30
2022-11-24T22:11:05.693Z,2.10
2022-11-24T22:13:32.778Z,2.83
2022-11-24T22:16:01.978Z,2.38
2022-11-24T22:18:37.722Z,1.92
2022-11-24T22:21:06.070Z,2.85
2022-11-24T22:23:34.200Z,3.08
2022-11-24T22:26:27.481Z,2.70
2022-11-24T22:28:55.669Z,2.00
2022-11-24T22:31:23.940Z,3.47
2022-11-24T22:33:51.584Z,2.67
2022-11-24T22:36:23.478Z,2.80
2022-11-24T22:38:55.561Z,2.88
2022-11-24T22:41:22.378Z,4.97
2022-11-24T22:43:49.479Z,3.42
2022-11-24T22:46:21.552Z,2.08
2022-11-24T22:48:49.416Z,2.47
2022-11-24T22:51:19.198Z,2.20
2022-11-24T22:53:50.258Z,2.15
2022-11-24T22:56:17.936Z,2.17
2022-11-24T22:58:44.585Z,1.80
2022-11-24T23:01:13.622Z,2.35
2022-11-24T23:03:40.828Z,3.05
2022-11-24T23:06:11.965Z,2.38
2022-11-24T23:08:39.230Z,3.10
2022-11-24T23:11:12.609Z,2.50
2022-11-24T23:13:39.733Z,2.60
2022-11-24T23:16:12.459Z,2.25
2022-11-24T23:18:40.072Z,2.97
2022-11-24T23:21:14.143Z,1.80
2022-11-24T23:23:41.597Z,2.08
2022-11-24T23:26:13.179Z,2.60
2022-11-24T23:28:40.425Z,1.85
2022-11-24T23:31:09.166Z,2.67
2022-11-24T23:33:36.587Z,1.75
2022-11-24T23:36:06.189Z,1.83
2022-11-24T23:38:33.036Z,2.20
2022-11-24T23:41:01.212Z,1.48
2022-11-24T23:43:27.836Z,2.25
2022-11-24T23:45:54.519Z,1.55
2022-11-24T23:48:21.260Z,1.60
2022-11-24T23:50:47.874Z,2.63
2022-11-24T23:53:14.551Z,1.73
2022-11-24T23:55:41.174Z,1.40
2022-11-24T23:58:08.086Z,1.63
